HELX 
Luxor International Airport
Luxor, Egypt 
ICAOIATAStatus
HELXLXROperational
LatitudeLongitude
25° 40' 15" N32° 42' 23" E
25.67100032.706600
Local Time (DST+2)UTC (GMT+2)
04-24-2014 06:09 pm04-24-2014 16:09
Sunrise-SunsetLocalUTC
Begin Civil Twilight04:52 am02:52
Sunrise05:16 am03:16
Sunset06:17 pm16:17
End Civil Twilight06:41 pm16:41

Current Weather

METARObservedFlight Conditions

HELX 241500Z 29002KT CAVOK 42/13 Q1004 NOSIG

Thu, Apr 24, 2014 @ 15:00 UTC(Z)

(1 Hour, 9 Minutes ago)

VFR

(Visual Flight Rules)

WindVisibilityCloudsConditions
290° at 2 knots (4 kph)
10 km or more
  • Clear skies
  • No significant weather
TemperaturesReadingsPrecipitation
Current Temp42°C (108°F)
Dewpoint13°C (55°F)
Humidity18%
Altimeter29.65"Hg
Sea Level Pressure1004mb
Field Elevation288.71'
None Recorded

Forecast Weather

TAF

TAF HELX 241100Z 2412/2518 02008KT 6000 NSC

FromTo
Thu, Apr 24, 2014 @ 12:00 UTC(Z) Fri, Apr 25, 2014 @ 18:00 UTC(Z)
WindVisibilityCloudsConditions
020° at 8 knots (15 kph)
6000 meters
  • No significant weather

Previous 24 hour Weather Graphs

  Loading...

CheckWX.com is intended as a tool to help pilots better visualize weather data.   It is not intended as a substitute for an official weather briefing obtained from a Flight Service Station.
CheckWX.com does not meet the FAA requirements for an official pre-flight weather briefing.   Therefore, it's important that pilots still call and obtain an official FSS pre-flight weather briefing.